Time;durP1;ratioP1;P1;durP2;ratioP2;P2;SDS_P1;SDS_P2;PMS_P1;PMS_P2;Temp;Humidity;BMP_temperature;BMP_pressure;BME280_temperature;BME280_humidity;BME280_pressure;Samples;Min_cycle;Max_cycle;Signal;HPM_P1;HPM_P2
2022/01/21 00:02:25;;;;;;;4.42;3.33;;;;;;;0.11;64.60;99142.59;1682610;84;21739;-60
2022/01/21 00:04:51;;;;;;;3.10;1.87;;;;;;;0.08;64.93;99152.89;1670567;84;21076;-61
2022/01/21 00:07:17;;;;;;;2.05;1.87;;;;;;;0.09;65.18;99149.78;1678108;84;21078;-60
2022/01/21 00:09:46;;;;;;;3.90;2.67;;;;;;;0.07;65.57;99142.06;1645524;85;21070;-61
2022/01/21 00:12:12;;;;;;;3.13;2.80;;;;;;;0.08;65.69;99139.80;1673406;84;21008;-60
2022/01/21 00:14:38;;;;;;;3.08;2.80;;;;;;;0.09;65.79;99146.66;1657935;84;21012;-62
2022/01/21 00:17:04;;;;;;;4.50;2.95;;;;;;;-0.18;65.75;99110.09;1667366;84;21053;-61
2022/01/21 00:19:37;;;;;;;4.78;3.10;;;;;;;0.03;65.79;99151.20;1682327;84;21133;-60
2022/01/21 00:30:14;;;;;;;3.77;3.00;;;;;;;-0.18;65.68;99144.13;1647152;84;21045;-61
2022/01/21 00:32:45;;;;;;;4.70;2.77;;;;;;;-0.22;65.71;99148.34;1649128;84;21041;-61
2022/01/21 00:35:12;;;;;;;6.47;3.53;;;;;;;-0.22;65.68;99148.84;1667642;84;21089;-59
2022/01/21 00:37:39;;;;;;;4.93;3.40;;;;;;;-0.23;65.54;99145.41;1656232;84;21071;-60
2022/01/21 00:40:09;;;;;;;3.70;3.40;;;;;;;-0.21;65.59;99145.23;1663806;84;21072;-60
2022/01/21 00:45:12;;;;;;;4.00;3.43;;;;;;;-0.36;64.65;99133.63;1661499;84;21029;-61
2022/01/21 00:47:37;;;;;;;4.60;3.50;;;;;;;-0.81;64.94;99077.67;1672599;84;21029;-60
2022/01/21 00:50:05;;;;;;;3.97;3.03;;;;;;;-0.45;65.03;99134.05;1664951;85;21062;-62
2022/01/21 00:52:32;;;;;;;3.83;3.27;;;;;;;-0.49;64.90;99130.05;1660115;85;21074;-61
2022/01/21 00:54:58;;;;;;;3.58;3.30;;;;;;;-0.50;65.16;99133.65;1652204;84;21089;-61
2022/01/21 00:57:24;;;;;;;4.70;3.58;;;;;;;-0.51;64.95;99130.68;1668469;84;21079;-60
2022/01/21 00:59:50;;;;;;;4.87;3.58;;;;;;;-0.56;64.88;99131.63;1671584;84;21005;-61
2022/01/21 01:02:17;;;;;;;5.40;2.40;;;;;;;-0.56;64.99;99141.60;1647684;84;21103;-61
2022/01/21 01:04:45;;;;;;;9.15;3.92;;;;;;;-0.56;64.45;99150.77;1662632;84;21024;-61
2022/01/21 01:07:11;;;;;;;6.60;3.67;;;;;;;-0.59;63.80;99139.27;1664158;84;21052;-61
2022/01/21 01:09:37;;;;;;;6.78;3.55;;;;;;;-0.68;63.47;99140.98;1678044;84;21074;-61
2022/01/21 01:12:18;;;;;;;7.27;4.10;;;;;;;-0.73;63.99;99145.82;1660432;84;21024;-61
2022/01/21 01:20:08;;;;;;;7.80;3.80;;;;;;;-0.71;63.33;99146.98;1685152;84;21128;-61
2022/01/21 01:27:55;;;;;;;6.00;3.43;;;;;;;-0.80;62.62;99148.67;1650381;84;21053;-61
2022/01/21 01:30:26;;;;;;;5.15;2.37;;;;;;;-0.87;62.79;99155.44;1653641;84;21541;-61
2022/01/21 01:32:56;;;;;;;6.93;3.37;;;;;;;-0.89;62.68;99145.61;1673315;84;21075;-60
2022/01/21 01:35:23;;;;;;;4.70;3.27;;;;;;;-0.92;62.64;99131.50;1673963;84;21509;-60
2022/01/21 01:38:16;;;;;;;3.33;2.57;;;;;;;-0.94;62.28;99135.59;1655091;84;21169;-61
2022/01/21 01:40:29;;;;;;;2.93;2.63;;;;;;;-0.96;62.38;99140.61;1666206;84;21049;-61
2022/01/21 01:50:57;;;;;;;5.50;3.20;;;;;;;-1.03;61.81;99132.52;1681376;84;21165;-60
2022/01/21 01:53:31;;;;;;;6.00;3.80;;;;;;;-1.08;61.96;99129.51;1657788;84;21001;-61
2022/01/21 01:56:00;;;;;;;4.63;3.43;;;;;;;-1.10;61.92;99122.29;1661863;84;21028;-60
2022/01/21 01:58:26;;;;;;;5.63;2.87;;;;;;;-1.08;61.95;99117.24;1671097;84;21069;-61
2022/01/21 02:00:56;;;;;;;2.77;2.35;;;;;;;-1.07;61.50;99116.78;1663115;84;21057;-61
2022/01/21 02:03:20;;;;;;;5.30;2.83;;;;;;;-1.08;61.47;99123.78;1657862;84;21033;-60
2022/01/21 02:05:46;;;;;;;4.80;2.30;;;;;;;-1.06;61.20;99114.49;1663949;84;21096;-60
2022/01/21 02:08:12;;;;;;;4.55;3.33;;;;;;;-1.07;61.36;99115.48;1682351;84;20982;-60
2022/01/21 02:10:40;;;;;;;3.77;1.98;;;;;;;-1.10;61.35;99117.06;1659505;84;21065;-60
2022/01/21 02:13:31;;;;;;;7.20;2.63;;;;;;;-1.11;61.17;99109.70;1665217;84;21556;-61
2022/01/21 02:15:37;;;;;;;6.50;2.17;;;;;;;-1.11;60.71;99106.25;1653796;84;21033;-60
2022/01/21 02:23:38;;;;;;;3.90;2.07;;;;;;;-1.14;60.53;99101.32;1657121;84;21526;-61
2022/01/21 02:26:05;;;;;;;2.47;1.80;;;;;;;-1.17;60.01;99094.56;1652601;84;21163;-60
2022/01/21 02:28:31;;;;;;;3.77;3.37;;;;;;;-1.19;59.92;99099.12;1665399;84;21097;-60
2022/01/21 02:30:59;;;;;;;5.03;2.87;;;;;;;-1.23;59.81;99098.58;1684797;84;21106;-59
2022/01/21 02:33:26;;;;;;;6.10;2.60;;;;;;;-1.22;59.68;99096.81;1678679;82;21046;-59
2022/01/21 02:35:54;;;;;;;4.83;3.33;;;;;;;-1.22;59.71;99093.70;1698168;83;20985;-60
2022/01/21 02:38:20;;;;;;;6.37;3.35;;;;;;;-1.20;59.70;99096.19;1687791;83;21531;-60
2022/01/21 02:40:47;;;;;;;2.45;2.20;;;;;;;-1.20;59.74;99099.61;1643034;85;21004;-60
2022/01/21 02:43:15;;;;;;;4.08;2.60;;;;;;;-1.21;59.71;99102.36;1662664;85;21315;-61
2022/01/21 02:45:45;;;;;;;3.37;1.90;;;;;;;-1.19;59.59;99100.42;1660949;85;21042;-60
2022/01/21 02:48:10;;;;;;;4.57;1.90;;;;;;;-1.19;59.66;99104.34;1659240;85;21095;-61
2022/01/21 02:50:37;;;;;;;3.70;1.97;;;;;;;-1.18;59.70;99093.75;1667991;85;21034;-61
2022/01/21 02:53:23;;;;;;;2.90;2.00;;;;;;;-1.15;59.80;99092.63;1666521;84;21021;-60
2022/01/21 02:55:38;;;;;;;5.37;2.50;;;;;;;-1.15;59.81;99088.70;1650050;85;21070;-61
2022/01/21 02:58:04;;;;;;;;;;;;;;;-1.19;60.02;99090.81;1662405;85;21232;-60
2022/01/21 03:00:32;;;;;;;4.60;2.45;;;;;;;-1.25;60.01;99083.52;1662255;85;20101;-61
2022/01/21 03:03:04;;;;;;;4.33;2.17;;;;;;;-1.33;60.35;99072.15;1648094;85;21158;-60
2022/01/21 03:05:35;;;;;;;3.37;2.57;;;;;;;-1.31;60.60;99070.22;1654723;85;21073;-62
2022/01/21 03:08:06;;;;;;;3.83;2.37;;;;;;;-1.27;60.71;99071.08;1660534;85;21054;-60
2022/01/21 03:13:10;;;;;;;2.70;1.63;;;;;;;-1.19;60.66;99054.20;1823364;77;22434;-62
2022/01/21 03:15:37;;;;;;;2.63;2.03;;;;;;;-1.29;60.28;99065.66;1786901;79;21030;-61
2022/01/21 03:18:03;;;;;;;4.67;2.70;;;;;;;-1.30;60.22;99053.09;1781989;79;21037;-61
2022/01/21 03:20:30;;;;;;;5.05;2.12;;;;;;;-1.31;60.09;99057.95;1787411;79;21076;-61
2022/01/21 03:22:57;;;;;;;4.70;2.10;;;;;;;-1.29;60.15;99047.36;1756244;80;20978;-62
2022/01/21 03:25:23;;;;;;;3.63;1.83;;;;;;;-1.30;60.27;99039.16;1782032;79;20987;-61
2022/01/21 03:27:49;;;;;;;2.70;2.27;;;;;;;-1.29;60.39;99040.33;1785302;79;22304;-60
2022/01/21 03:30:15;;;;;;;4.90;2.20;;;;;;;-1.29;60.26;99038.21;1796302;79;21576;-62
2022/01/21 03:32:44;;;;;;;4.10;2.10;;;;;;;-1.29;60.30;99035.59;1764952;79;21527;-60
2022/01/21 03:35:12;;;;;;;2.92;2.10;;;;;;;-1.32;60.42;99037.18;1785576;79;20994;-60
2022/01/21 03:37:38;;;;;;;4.30;2.60;;;;;;;-1.33;60.64;99042.09;1695906;82;21516;-61
2022/01/21 03:40:07;;;;;;;3.93;2.13;;;;;;;-1.32;60.55;99039.80;1714008;82;21092;-61
2022/01/21 03:42:33;;;;;;;4.73;2.17;;;;;;;-1.31;60.53;99033.13;1711213;82;21068;-63
2022/01/21 03:44:59;;;;;;;2.95;2.60;;;;;;;-1.29;60.50;99031.19;1768870;79;21045;-61
2022/01/21 03:47:25;;;;;;;4.10;1.75;;;;;;;-1.30;60.31;99033.48;1750882;80;20974;-61
2022/01/21 03:49:56;;;;;;;2.42;2.12;;;;;;;-1.30;60.42;99031.32;1772886;79;21159;-61
2022/01/21 03:52:21;;;;;;;2.43;1.53;;;;;;;-1.30;60.25;99027.41;1777171;79;21093;-61
2022/01/21 03:54:48;;;;;;;3.00;1.62;;;;;;;-1.34;60.23;99030.78;1774750;79;21069;-61
2022/01/21 03:57:14;;;;;;;3.53;2.30;;;;;;;-1.37;60.35;99024.56;1714448;79;21006;-61
2022/01/21 03:59:41;;;;;;;6.60;3.23;;;;;;;-1.44;60.41;99015.15;1725850;82;21115;-60
2022/01/21 04:02:07;;;;;;;12.55;2.77;;;;;;;-1.49;60.86;99026.50;1751186;80;20985;-61
2022/01/21 04:04:34;;;;;;;;;;;;;;;-1.50;61.04;99027.98;1732819;81;21512;-61
2022/01/21 04:07:03;;;;;;;4.00;2.60;;;;;;;-1.55;61.29;99024.47;1731252;81;20099;-61
2022/01/21 04:09:31;;;;;;;3.97;3.20;;;;;;;-1.59;61.63;99027.03;1730832;81;20994;-61
2022/01/21 04:11:57;;;;;;;3.95;2.27;;;;;;;-1.58;61.86;99026.90;1739027;81;21481;-60
2022/01/21 04:14:24;;;;;;;8.08;3.12;;;;;;;-1.51;62.15;99022.40;1711789;82;21036;-61
2022/01/21 04:16:50;;;;;;;4.97;2.75;;;;;;;-1.50;62.19;99022.27;1705144;83;21514;-61
2022/01/21 04:19:16;;;;;;;4.17;3.20;;;;;;;-1.47;62.47;99027.67;1732615;82;21028;-60
2022/01/21 04:21:43;;;;;;;5.47;2.43;;;;;;;-1.48;62.66;99025.55;1714002;82;20995;-61
2022/01/21 04:24:11;;;;;;;5.10;2.50;;;;;;;-1.47;62.98;99013.30;1757477;80;21032;-60
2022/01/21 04:26:40;;;;;;;3.03;2.77;;;;;;;-1.50;63.31;99018.83;1763062;80;21017;-61
2022/01/21 04:29:08;;;;;;;6.40;2.90;;;;;;;-1.55;63.84;99021.05;1763151;80;21013;-60
2022/01/21 04:31:36;;;;;;;4.93;3.13;;;;;;;-1.59;64.24;99019.20;1763064;80;21125;-61
2022/01/21 04:34:03;;;;;;;5.87;3.07;;;;;;;-1.62;64.37;99016.86;1762519;80;21027;-62
2022/01/21 04:36:29;;;;;;;7.60;3.98;;;;;;;-1.61;64.76;99019.33;1764859;80;21028;-61
2022/01/21 04:38:58;;;;;;;4.30;3.33;;;;;;;-1.57;64.79;99027.72;1759378;80;22156;-60
2022/01/21 04:41:53;;;;;;;5.00;3.73;;;;;;;-1.53;64.95;99016.49;1767054;80;21304;-60
2022/01/21 04:49:23;;;;;;;3.40;2.67;;;;;;;-1.49;65.62;99012.63;1760828;80;21074;-61
2022/01/21 04:52:02;;;;;;;6.05;3.10;;;;;;;-1.42;65.76;99013.70;1757809;80;21035;-62
2022/01/21 04:54:18;;;;;;;5.67;3.60;;;;;;;-1.37;65.86;99006.26;1755157;80;21584;-62
2022/01/21 04:56:45;;;;;;;6.95;3.52;;;;;;;-1.35;66.39;99004.32;1762375;80;21039;-61
2022/01/21 04:59:12;;;;;;;5.53;3.08;;;;;;;-1.38;66.52;99006.72;1762692;80;21040;-63
2022/01/21 05:01:39;;;;;;;4.37;2.70;;;;;;;-1.42;67.01;99000.14;1764193;80;21060;-61
2022/01/21 05:04:05;;;;;;;5.25;3.42;;;;;;;-1.44;67.55;98998.65;1760916;80;21099;-61
2022/01/21 05:06:31;;;;;;;6.17;3.85;;;;;;;-1.50;67.61;98997.44;1741623;81;21135;-61
2022/01/21 05:09:00;;;;;;;6.00;3.60;;;;;;;-1.52;67.81;99005.09;1749573;80;20998;-61
2022/01/21 05:11:27;;;;;;;8.40;3.80;;;;;;;-1.51;67.89;99007.53;1762965;80;21095;-62
2022/01/21 05:13:58;;;;;;;7.37;3.80;;;;;;;-1.46;67.96;99003.20;1763842;80;20980;-62
2022/01/21 05:16:39;;;;;;;4.03;2.83;;;;;;;-1.44;68.27;99006.49;1762710;80;21028;-62
2022/01/21 05:19:12;;;;;;;2.73;2.53;;;;;;;-1.45;68.06;98999.14;1750999;80;21064;-64
2022/01/21 05:21:49;;;;;;;6.40;3.77;;;;;;;-1.45;68.50;99009.59;1762856;80;21059;-60
2022/01/21 05:24:20;;;;;;;10.87;4.13;;;;;;;-1.42;68.49;99001.45;1756761;80;21466;-59
2022/01/21 05:26:56;;;;;;;6.27;3.53;;;;;;;-1.40;68.69;98998.20;1767843;80;21020;-60
2022/01/21 05:29:31;;;;;;;3.80;3.23;;;;;;;-1.37;68.70;99011.00;1753099;80;21088;-61
2022/01/21 05:32:05;;;;;;;3.43;3.00;;;;;;;-1.41;68.74;98996.58;1758506;80;21951;-63
2022/01/21 05:34:42;;;;;;;7.60;3.60;;;;;;;-1.30;68.69;99006.02;1758598;79;21102;-60
2022/01/21 05:37:11;;;;;;;3.50;2.70;;;;;;;-1.29;68.77;98999.81;1762875;80;21532;-61
2022/01/21 05:39:40;;;;;;;6.00;3.40;;;;;;;-1.29;68.66;99007.66;1735321;80;20997;-61
2022/01/21 05:42:11;;;;;;;7.47;4.13;;;;;;;-1.25;68.73;99013.42;1760458;80;20990;-61
2022/01/21 05:47:10;;;;;;;6.77;3.70;;;;;;;-1.65;68.62;98956.58;1758482;80;21128;-61
2022/01/21 05:49:55;;;;;;;6.70;4.67;;;;;;;-1.31;68.98;99014.01;1759826;80;21066;-62
2022/01/21 05:52:36;;;;;;;9.40;3.73;;;;;;;-1.29;69.10;99017.30;1695372;80;21513;-60
2022/01/21 05:55:06;;;;;;;7.43;3.20;;;;;;;-1.26;69.20;99015.68;1760369;79;21040;-61
2022/01/21 05:57:44;;;;;;;9.57;3.70;;;;;;;-1.27;69.24;99017.97;1681222;80;20989;-61
2022/01/21 06:00:14;;;;;;;7.83;3.77;;;;;;;-1.27;69.77;99012.75;1762168;80;21261;-60
2022/01/21 06:02:42;;;;;;;4.27;2.80;;;;;;;-1.30;69.61;99020.86;1762477;80;21096;-61
2022/01/21 06:05:12;;;;;;;5.47;3.42;;;;;;;-1.30;69.63;99015.17;1762621;80;20993;-62
2022/01/21 06:07:41;;;;;;;7.17;3.80;;;;;;;-1.28;69.61;99021.08;1761434;80;21449;-62
2022/01/21 06:10:09;;;;;;;4.47;2.87;;;;;;;-1.29;69.77;99025.14;1761139;80;21064;-62
2022/01/21 06:12:35;;;;;;;7.70;4.17;;;;;;;-1.33;69.91;99017.25;1762404;79;21076;-61
2022/01/21 06:15:02;;;;;;;5.62;4.10;;;;;;;-1.39;69.94;99021.27;1762834;80;21049;-62
2022/01/21 06:17:28;;;;;;;8.98;4.80;;;;;;;-1.42;70.23;99020.23;1763183;80;20988;-63
2022/01/21 06:19:54;;;;;;;5.37;3.55;;;;;;;-1.44;70.32;99019.06;1763374;80;21423;-60
2022/01/21 06:22:21;;;;;;;7.28;4.10;;;;;;;-1.40;70.40;99019.11;1759918;79;21056;-61
2022/01/21 06:24:47;;;;;;;9.38;4.22;;;;;;;-1.38;70.25;99017.67;1759647;80;21079;-61
2022/01/21 06:27:13;;;;;;;11.60;5.45;;;;;;;-1.35;70.34;99013.47;1752718;80;21001;-60
2022/01/21 06:29:40;;;;;;;6.62;4.17;;;;;;;-1.31;70.36;99015.31;1760734;80;21077;-59
2022/01/21 06:32:07;;;;;;;6.53;3.85;;;;;;;-1.33;70.20;98996.34;1755172;80;21000;-60
2022/01/21 06:34:33;;;;;;;6.10;3.47;;;;;;;-1.20;70.21;99021.17;1749660;80;20937;-61
2022/01/21 06:36:59;;;;;;;5.37;3.35;;;;;;;-1.15;69.94;99020.72;1752849;80;21841;-61
2022/01/21 06:39:25;;;;;;;4.95;3.70;;;;;;;-1.11;69.89;99017.33;1758642;80;21008;-62
2022/01/21 06:41:51;;;;;;;5.58;3.27;;;;;;;-1.12;69.63;99015.20;1764013;80;21482;-61
2022/01/21 06:44:18;;;;;;;5.35;3.17;;;;;;;-1.14;69.54;99017.15;1757213;79;20969;-61
2022/01/21 06:46:44;;;;;;;5.33;3.35;;;;;;;-1.12;69.55;99020.94;1758140;80;21005;-60
2022/01/21 06:49:10;;;;;;;6.12;3.98;;;;;;;-1.11;69.19;99012.95;1760906;80;21001;-60
2022/01/21 06:51:36;;;;;;;7.65;4.15;;;;;;;-1.11;69.21;99020.80;1764427;80;21021;-70
2022/01/21 06:54:02;;;;;;;6.83;4.83;;;;;;;-1.10;69.22;99022.91;1770563;80;21516;-75
2022/01/21 06:56:30;;;;;;;7.65;3.55;;;;;;;-1.05;69.11;99024.13;1756759;80;21028;-71
2022/01/21 06:58:57;;;;;;;5.83;3.80;;;;;;;-1.00;69.15;99021.05;1763139;80;21034;-72
2022/01/21 07:01:23;;;;;;;;;;;;;;;-0.94;69.03;99024.87;1755655;80;21058;-74
2022/01/21 07:03:50;;;;;;;4.43;3.20;;;;;;;-0.88;68.66;99025.13;1762914;80;20150;-72
2022/01/21 07:06:16;;;;;;;5.80;3.70;;;;;;;-0.86;68.54;99023.68;1761241;80;21048;-74
2022/01/21 07:08:42;;;;;;;5.05;3.85;;;;;;;-0.83;68.58;99018.13;1752301;80;21469;-75
2022/01/21 07:11:09;;;;;;;8.90;4.92;;;;;;;-0.80;68.35;99026.52;1760309;79;21008;-74
2022/01/21 07:13:36;;;;;;;5.47;3.60;;;;;;;-0.77;67.70;99021.95;1738406;80;21082;-74
2022/01/21 07:16:02;;;;;;;7.42;4.05;;;;;;;-0.79;67.64;99019.51;1754785;80;21132;-73
2022/01/21 07:18:30;;;;;;;6.22;4.15;;;;;;;-0.80;67.64;99011.31;1763971;80;21527;-75
2022/01/21 07:20:56;;;;;;;8.60;6.10;;;;;;;-0.79;67.45;99011.66;1731930;81;21144;-73
2022/01/21 07:23:23;;;;;;;4.60;4.10;;;;;;;-0.76;67.70;99014.45;1753415;80;21060;-72
2022/01/21 07:25:49;;;;;;;5.22;3.92;;;;;;;-0.67;67.37;99023.55;1749257;80;21019;-73
2022/01/21 07:28:15;;;;;;;7.08;5.10;;;;;;;-0.62;67.03;99033.09;1761674;80;21060;-72
2022/01/21 07:30:43;;;;;;;8.07;5.40;;;;;;;-0.60;66.87;99014.62;1760094;80;21132;-74
2022/01/21 07:33:09;;;;;;;8.78;4.37;;;;;;;-0.60;67.00;99014.62;1763603;79;20981;-74
2022/01/21 07:35:36;;;;;;;5.92;4.28;;;;;;;-0.60;67.35;99027.71;1764239;80;21005;-73
2022/01/21 07:38:02;;;;;;;5.00;3.42;;;;;;;-0.90;67.31;98968.70;1759716;80;20945;-73
2022/01/21 07:40:28;;;;;;;4.75;3.45;;;;;;;-0.56;67.52;99029.55;1760087;80;21441;-73
2022/01/21 07:42:54;;;;;;;8.15;5.12;;;;;;;-0.52;67.87;99033.51;1758073;80;21016;-74
2022/01/21 07:45:20;;;;;;;7.53;4.53;;;;;;;-0.48;67.68;99029.12;1749779;80;21032;-73
2022/01/21 07:47:47;;;;;;;4.67;3.67;;;;;;;-0.42;67.79;99024.59;1761037;80;21026;-72
2022/01/21 07:50:13;;;;;;;8.60;4.83;;;;;;;-0.32;67.50;99009.28;1763887;80;21036;-74
2022/01/21 07:52:39;;;;;;;10.93;4.60;;;;;;;-0.24;67.05;99021.97;1763060;80;21036;-74
2022/01/21 07:55:06;;;;;;;7.25;4.03;;;;;;;-0.21;66.70;99016.44;1752620;80;20985;-73
2022/01/21 07:57:32;;;;;;;7.40;3.00;;;;;;;-0.19;66.49;99011.03;1763808;80;21052;-74
2022/01/21 08:00:01;;;;;;;5.60;4.30;;;;;;;-0.20;66.50;98997.61;1744154;81;21039;-73
2022/01/21 08:02:28;;;;;;;5.42;3.83;;;;;;;-0.07;66.17;99010.32;1726571;82;21537;-72
2022/01/21 08:04:57;;;;;;;7.90;4.00;;;;;;;0.01;65.74;99012.98;1723240;82;21010;-70
2022/01/21 08:07:23;;;;;;;7.63;4.70;;;;;;;0.07;65.60;99022.03;1715419;82;21037;-73
2022/01/21 08:09:49;;;;;;;7.60;5.55;;;;;;;0.03;64.99;99016.28;1709428;82;21109;-76
2022/01/21 08:12:18;;;;;;;8.93;3.87;;;;;;;-0.02;65.33;99018.52;1712043;82;21009;-73
2022/01/21 08:14:44;;;;;;;5.17;3.37;;;;;;;-0.03;65.76;99018.20;1685197;84;21072;-74
2022/01/21 08:17:12;;;;;;;8.03;5.10;;;;;;;-0.09;65.77;99020.13;1712387;82;21076;-74
2022/01/21 08:19:39;;;;;;;12.87;8.00;;;;;;;-0.11;66.04;99019.47;1710821;82;21041;-62
2022/01/21 08:22:05;;;;;;;6.13;4.07;;;;;;;-0.12;66.35;99022.55;1704925;82;21048;-61
2022/01/21 08:24:31;;;;;;;;;;;;;;;-0.11;66.07;99024.70;1737059;81;21112;-60
2022/01/21 08:26:58;;;;;;;6.67;3.93;;;;;;;-0.16;66.36;99006.80;1736528;81;20190;-60
2022/01/21 08:29:24;;;;;;;6.00;3.92;;;;;;;-0.23;66.50;99009.23;1732319;81;21049;-59
2022/01/21 08:31:50;;;;;;;7.20;4.35;;;;;;;-0.17;66.94;99017.43;1732479;81;21479;-61
2022/01/21 08:34:16;;;;;;;5.30;4.33;;;;;;;-0.23;66.30;98996.13;1735637;80;21592;-61
2022/01/21 08:36:46;;;;;;;5.53;4.35;;;;;;;-0.20;66.31;99006.28;1732599;81;21479;-60
2022/01/21 08:39:13;;;;;;;7.90;4.33;;;;;;;-0.18;66.73;99009.25;1734333;81;21173;-62
2022/01/21 08:41:40;;;;;;;5.73;4.23;;;;;;;-0.17;66.67;99007.80;1736168;81;21648;-61
2022/01/21 08:44:06;;;;;;;7.60;4.67;;;;;;;-0.15;66.55;99010.24;1733981;81;21909;-60
2022/01/21 08:46:33;;;;;;;10.20;5.03;;;;;;;-0.13;66.84;99008.29;1734478;81;21034;-61
2022/01/21 08:49:06;;;;;;;5.60;3.60;;;;;;;-0.10;66.96;99011.92;1744325;81;21114;-61
2022/01/21 08:51:38;;;;;;;7.80;4.90;;;;;;;-0.02;66.90;99017.21;1733698;81;21526;-61
2022/01/21 08:53:55;;;;;;;10.40;4.33;;;;;;;-0.03;66.81;99022.13;1735092;81;21006;-61
2022/01/21 08:56:23;;;;;;;12.45;5.40;;;;;;;-0.03;67.16;99012.97;1728556;81;21021;-60
2022/01/21 08:58:49;;;;;;;9.27;4.37;;;;;;;0.00;67.38;99024.46;1731683;81;21093;-66
2022/01/21 09:01:16;;;;;;;4.83;3.98;;;;;;;0.06;67.10;99028.23;1709907;81;20995;-61
2022/01/21 09:03:43;;;;;;;10.30;4.50;;;;;;;0.09;67.19;99019.59;1728513;81;21061;-60
2022/01/21 09:06:11;;;;;;;9.43;5.45;;;;;;;0.10;67.25;99009.95;1694325;83;21066;-62
2022/01/21 09:08:40;;;;;;;12.60;6.57;;;;;;;0.07;67.29;99015.48;1766261;80;20953;-63
2022/01/21 09:11:06;;;;;;;8.37;5.07;;;;;;;0.02;67.12;99008.56;1764229;79;21057;-62
2022/01/21 09:13:39;;;;;;;11.53;5.67;;;;;;;-0.01;67.44;99016.25;1769521;80;21124;-62
2022/01/21 09:16:01;;;;;;;10.70;5.40;;;;;;;0.03;67.35;99008.41;1762487;80;21083;-62
2022/01/21 09:18:44;;;;;;;7.20;6.03;;;;;;;0.11;66.89;99008.95;1759937;80;20954;-64
2022/01/21 09:21:01;;;;;;;7.17;5.27;;;;;;;0.08;66.41;99008.78;1761959;80;21030;-62
2022/01/21 09:23:29;;;;;;;8.47;5.00;;;;;;;0.02;66.58;99006.79;1763516;79;21004;-62
2022/01/21 09:25:55;;;;;;;6.87;4.42;;;;;;;-0.03;66.29;99007.73;1761775;81;21001;-63
2022/01/21 09:28:22;;;;;;;6.92;5.05;;;;;;;-0.04;66.53;98993.81;1765424;80;21546;-63
2022/01/21 09:30:48;;;;;;;9.10;5.47;;;;;;;-0.02;66.66;98993.17;1764105;80;21039;-62
2022/01/21 09:33:14;;;;;;;7.53;4.45;;;;;;;-0.01;66.68;98984.31;1750575;80;21068;-64
2022/01/21 09:35:42;;;;;;;13.88;6.03;;;;;;;0.00;65.95;98987.78;1755293;80;21036;-62
2022/01/21 09:38:08;;;;;;;10.17;5.73;;;;;;;0.02;65.69;98988.91;1762357;80;21028;-61
2022/01/21 09:40:45;;;;;;;8.30;4.40;;;;;;;0.02;65.68;98983.21;1761053;80;21128;-64
2022/01/21 09:43:11;;;;;;;7.37;4.83;;;;;;;0.08;65.78;98991.76;1765126;80;20993;-62
2022/01/21 09:45:39;;;;;;;;;;;;;;;0.12;65.63;98990.47;1768225;80;21031;-63
2022/01/21 09:48:06;;;;;;;8.05;4.78;;;;;;;0.06;65.94;98988.47;1760259;80;20155;-62
2022/01/21 09:50:33;;;;;;;10.77;5.03;;;;;;;-0.03;66.74;98986.27;1704234;83;21121;-62
2022/01/21 09:53:01;;;;;;;12.58;5.62;;;;;;;-0.05;67.14;98984.30;1703007;83;21015;-64
2022/01/21 09:55:27;;;;;;;7.97;5.33;;;;;;;-0.06;67.20;98983.98;1762915;80;20973;-62
2022/01/21 09:57:56;;;;;;;9.85;5.28;;;;;;;-0.09;67.83;98975.11;1755813;80;21041;-63
2022/01/21 10:00:25;;;;;;;11.20;5.90;;;;;;;-0.15;68.59;98990.13;1762036;80;21086;-64
2022/01/21 10:02:53;;;;;;;13.23;6.00;;;;;;;-0.24;69.09;98993.16;1730707;81;21068;-64
2022/01/21 10:05:20;;;;;;;9.10;4.93;;;;;;;-0.31;69.85;98987.37;1737139;81;21969;-62
2022/01/21 10:07:49;;;;;;;7.30;5.50;;;;;;;-0.32;70.61;98986.56;1731798;81;21759;-62
2022/01/21 10:10:16;;;;;;;9.37;6.37;;;;;;;-0.31;71.19;98988.19;1734403;81;20962;-63
2022/01/21 10:12:47;;;;;;;12.53;5.80;;;;;;;-0.33;71.63;98991.45;1713099;81;20974;-62
2022/01/21 10:15:14;;;;;;;10.40;5.57;;;;;;;-0.36;72.44;98982.58;1765969;80;21012;-61
2022/01/21 10:17:59;;;;;;;11.87;6.67;;;;;;;-0.49;72.67;98966.44;1778423;80;21038;-63
2022/01/21 10:20:25;;;;;;;10.23;5.80;;;;;;;-0.42;72.92;98972.72;1761558;80;20989;-62
2022/01/21 10:23:05;;;;;;;13.68;5.97;;;;;;;-0.46;72.99;98976.62;1711192;83;21081;-63
2022/01/21 10:25:34;;;;;;;12.13;5.50;;;;;;;-0.50;73.02;98974.79;1708367;83;21022;-62
2022/01/21 10:28:19;;;;;;;9.47;5.87;;;;;;;-0.53;73.30;98975.57;1708194;83;20989;-63
2022/01/21 10:30:48;;;;;;;9.40;5.30;;;;;;;-0.52;73.46;98965.45;1719724;81;21040;-62
2022/01/21 10:33:26;;;;;;;14.50;6.07;;;;;;;-0.48;73.66;98962.86;1733736;80;21047;-64
2022/01/21 10:36:15;;;;;;;8.37;5.90;;;;;;;-0.47;73.40;98964.48;1763196;80;20997;-62
2022/01/21 10:38:45;;;;;;;17.57;6.43;;;;;;;-0.44;73.16;98961.58;1731054;81;21041;-62
2022/01/21 10:41:15;;;;;;;10.53;4.63;;;;;;;-0.42;73.25;98957.83;1700652;83;21018;-61
2022/01/21 10:43:44;;;;;;;12.43;5.77;;;;;;;-0.37;73.24;98961.81;1719059;81;21012;-62
2022/01/21 10:46:17;;;;;;;14.83;6.67;;;;;;;-0.31;73.29;98958.08;1769885;80;21722;-62
2022/01/21 10:49:02;;;;;;;8.87;5.43;;;;;;;-0.22;72.92;98960.28;1748145;80;21048;-62
2022/01/21 10:51:33;;;;;;;7.50;5.37;;;;;;;-0.18;72.24;98955.56;1728357;81;21092;-62
2022/01/21 10:54:19;;;;;;;9.90;5.53;;;;;;;-0.20;71.69;98963.56;1762014;80;21020;-62
2022/01/21 10:57:06;;;;;;;15.83;6.03;;;;;;;-0.24;71.57;98957.00;1761565;80;21001;-63
2022/01/21 10:59:58;;;;;;;8.43;4.55;;;;;;;-0.26;71.55;98957.14;1760603;80;21008;-63
2022/01/21 11:02:40;;;;;;;9.30;4.33;;;;;;;-0.18;70.80;98962.11;1731151;81;20998;-63
2022/01/21 11:05:28;;;;;;;17.87;5.00;;;;;;;-0.16;70.74;98961.47;1761509;80;21536;-63
2022/01/21 11:08:07;;;;;;;7.80;3.97;;;;;;;-0.13;70.55;98959.83;1759247;80;20997;-63
2022/01/21 11:10:40;;;;;;;8.70;4.67;;;;;;;-0.13;70.54;98967.69;1751342;80;21557;-63
2022/01/21 11:13:20;;;;;;;12.27;4.23;;;;;;;-0.13;70.88;98963.30;1703027;83;21534;-64
2022/01/21 11:15:58;;;;;;;11.20;3.57;;;;;;;-0.14;71.17;98963.45;1697768;83;22080;-63
2022/01/21 11:18:28;;;;;;;10.50;4.20;;;;;;;-0.12;71.10;98968.04;1702575;83;21534;-63
2022/01/21 11:21:09;;;;;;;15.33;3.93;;;;;;;-0.10;70.55;98966.09;1704880;83;21043;-63
2022/01/21 11:23:37;;;;;;;7.57;3.67;;;;;;;-0.10;70.45;98952.98;1704926;83;20970;-62
2022/01/21 11:26:09;;;;;;;10.17;4.20;;;;;;;-0.10;70.26;98949.87;1707515;83;21001;-62
2022/01/21 11:28:39;;;;;;;13.40;4.77;;;;;;;-0.09;70.17;98963.31;1702693;83;21064;-63
2022/01/21 11:31:07;;;;;;;7.03;4.60;;;;;;;-0.04;70.35;98957.61;1730166;81;20997;-62
2022/01/21 11:33:35;;;;;;;24.07;5.00;;;;;;;-0.01;70.12;98955.50;1763134;79;21016;-67
2022/01/21 11:36:05;;;;;;;5.70;2.97;;;;;;;-0.05;69.89;98950.73;1763313;80;21007;-62
2022/01/21 11:38:37;;;;;;;12.47;4.27;;;;;;;-0.08;70.22;98962.33;1764621;80;21103;-63
2022/01/21 11:41:06;;;;;;;11.57;3.53;;;;;;;-0.09;70.62;98962.02;1703290;83;21040;-72
2022/01/21 11:43:35;;;;;;;14.37;5.03;;;;;;;-0.07;70.70;98952.70;1702653;83;21107;-72
2022/01/21 11:48:57;;;;;;;10.87;3.97;;;;;;;-0.05;70.10;98952.05;1764176;80;21060;-72
2022/01/21 11:51:31;;;;;;;8.23;4.10;;;;;;;-0.05;70.10;98952.05;1762597;80;21032;-72
2022/01/21 11:54:05;;;;;;;8.90;4.93;;;;;;;-0.05;69.59;98950.73;1747573;80;21529;-69
2022/01/21 11:57:00;;;;;;;7.50;4.20;;;;;;;-0.07;69.00;98950.08;1704049;82;21545;-72
2022/01/21 11:59:37;;;;;;;11.50;3.83;;;;;;;-0.15;68.47;98957.86;1702832;83;20967;-72
2022/01/21 12:02:26;;;;;;;23.23;5.93;;;;;;;-0.24;68.50;98955.69;1692928;82;21507;-72
2022/01/21 12:04:57;;;;;;;10.67;3.83;;;;;;;-0.24;68.68;98953.88;1700478;83;21089;-72
2022/01/21 12:07:44;;;;;;;11.37;4.23;;;;;;;-0.23;67.97;98953.39;1704766;83;21105;-74
2022/01/21 12:10:19;;;;;;;14.30;7.50;;;;;;;-0.26;67.98;98953.72;1690903;83;21066;-74
2022/01/21 12:13:01;;;;;;;36.13;14.57;;;;;;;-0.23;68.20;98954.23;1702928;83;21590;-71
2022/01/21 12:20:48;;;;;;;12.77;4.97;;;;;;;-0.56;68.18;98892.95;1704358;83;21871;-73
2022/01/21 12:23:19;;;;;;;19.13;4.57;;;;;;;-0.20;67.85;98939.50;1744095;81;21461;-73
2022/01/21 12:26:28;;;;;;;13.50;3.37;;;;;;;-0.19;67.63;98944.24;1743674;81;21013;-70
2022/01/21 12:28:59;;;;;;;11.88;6.87;;;;;;;-0.15;67.77;98940.83;1770948;80;21605;-71
2022/01/21 12:31:48;;;;;;;21.80;8.30;;;;;;;-0.12;67.70;98952.33;1762087;80;21469;-71
2022/01/21 12:34:20;;;;;;;8.50;5.17;;;;;;;-0.09;67.51;98942.36;1752612;80;20963;-72
2022/01/21 12:37:00;;;;;;;11.08;5.08;;;;;;;-0.09;66.49;98938.93;1762526;80;21456;-74
2022/01/21 12:39:48;;;;;;;7.13;3.97;;;;;;;-0.05;66.34;98940.27;1702929;83;21079;-71